<?xml version="1.0" encoding="UTF-8" standalone="no" ?>
<gpx xmlns="http://www.topografix.com/GPX/1/1" xmlns:xsi="http://www.w3.org/2001/XMLSchema-instance" xsi:schemaLocation="http://www.topografix.com/GPX/1/1 http://www.topografix.com/GPX/1/1/gpx.xsd" version="1.1" creator="VisuGPX - https://www.visugpx.com">
  <metadata>
    <name>Eragny sur Oise (14km)</name>
  </metadata>
  <trk>
    <name><![CDATA[9346160-Eragny (14km)]]></name>
    <trkseg>
      <trkpt lat="49.01964" lon="2.09077">
        <ele>50</ele>
        <time>2019-08-26T14:30:48Z</time>
      </trkpt>
      <trkpt lat="49.01985" lon="2.09062">
        <ele>48</ele>
        <time>2019-08-26T14:31:19Z</time>
      </trkpt>
      <trkpt lat="49.01964" lon="2.09005">
        <ele>47</ele>
        <time>2019-08-26T14:32:16Z</time>
      </trkpt>
      <trkpt lat="49.02" lon="2.08977">
        <ele>41</ele>
        <time>2019-08-26T14:33:10Z</time>
      </trkpt>
      <trkpt lat="49.02017" lon="2.09027">
        <ele>41</ele>
        <time>2019-08-26T14:33:59Z</time>
      </trkpt>
      <trkpt lat="49.02055" lon="2.09127">
        <ele>42.8</ele>
        <time>2019-08-26T14:39:25Z</time>
      </trkpt>
      <trkpt lat="49.02087" lon="2.09145">
        <ele>37.2</ele>
        <time>2019-08-26T14:40:15Z</time>
      </trkpt>
      <trkpt lat="49.02126" lon="2.09169">
        <ele>38.1</ele>
        <time>2019-08-26T14:40:43Z</time>
      </trkpt>
      <trkpt lat="49.02156" lon="2.09204">
        <ele>36.8</ele>
        <time>2019-08-26T14:41:10Z</time>
      </trkpt>
      <trkpt lat="49.02182" lon="2.0923">
        <ele>31.3</ele>
        <time>2019-08-26T14:41:33Z</time>
      </trkpt>
      <trkpt lat="49.02203" lon="2.09237">
        <ele>31</ele>
        <time>2019-08-26T14:41:54Z</time>
      </trkpt>
      <trkpt lat="49.02181" lon="2.09202">
        <ele>29.3</ele>
        <time>2019-08-26T14:42:24Z</time>
      </trkpt>
      <trkpt lat="49.02185" lon="2.09194">
        <ele>29</ele>
        <time>2019-08-26T14:42:36Z</time>
      </trkpt>
      <trkpt lat="49.02205" lon="2.09204">
        <ele>29</ele>
        <time>2019-08-26T14:44:16Z</time>
      </trkpt>
      <trkpt lat="49.02224" lon="2.09214">
        <ele>28</ele>
        <time>2019-08-26T14:44:32Z</time>
      </trkpt>
      <trkpt lat="49.02241" lon="2.09215">
        <ele>26</ele>
        <time>2019-08-26T14:45:31Z</time>
      </trkpt>
      <trkpt lat="49.02257" lon="2.09216">
        <ele>26</ele>
        <time>2019-08-26T14:47:12Z</time>
      </trkpt>
      <trkpt lat="49.02279" lon="2.09209">
        <ele>25</ele>
        <time>2019-08-26T14:48:05Z</time>
      </trkpt>
      <trkpt lat="49.02288" lon="2.09207">
        <ele>25</ele>
        <time>2019-08-26T14:49:06Z</time>
      </trkpt>
      <trkpt lat="49.02322" lon="2.09105">
        <ele>22</ele>
        <time>2019-08-26T14:51:10Z</time>
      </trkpt>
      <trkpt lat="49.02329" lon="2.09104">
        <ele>23</ele>
        <time>2019-08-26T14:52:12Z</time>
      </trkpt>
      <trkpt lat="49.02333" lon="2.09098">
        <ele>22</ele>
        <time>2019-08-26T14:53:34Z</time>
      </trkpt>
      <trkpt lat="49.02375" lon="2.09118">
        <ele>24</ele>
        <time>2019-08-26T14:58:10Z</time>
      </trkpt>
      <trkpt lat="49.02445" lon="2.09163">
        <ele>25</ele>
        <time>2019-08-26T14:58:27Z</time>
      </trkpt>
      <trkpt lat="49.02481" lon="2.09188">
        <ele>24</ele>
        <time>2019-08-26T14:58:54Z</time>
      </trkpt>
      <trkpt lat="49.02524" lon="2.0921">
        <ele>24</ele>
        <time>2019-08-26T14:59:13Z</time>
      </trkpt>
      <trkpt lat="49.02614" lon="2.09248">
        <ele>23</ele>
        <time>2019-08-26T14:59:48Z</time>
      </trkpt>
      <trkpt lat="49.02659" lon="2.09261">
        <ele>25</ele>
        <time>2019-08-26T15:01:35Z</time>
      </trkpt>
      <trkpt lat="49.0272" lon="2.09278">
        <ele>24</ele>
        <time>2019-08-26T15:06:11Z</time>
      </trkpt>
      <trkpt lat="49.02881" lon="2.0931">
        <ele>23.6</ele>
        <time>2019-08-26T15:06:36Z</time>
      </trkpt>
      <trkpt lat="49.02924" lon="2.09324">
        <ele>25</ele>
        <time>2019-08-26T15:06:59Z</time>
      </trkpt>
      <trkpt lat="49.02936" lon="2.09331">
        <ele>25</ele>
        <time>2019-08-26T15:11:52Z</time>
      </trkpt>
      <trkpt lat="49.02929" lon="2.0936">
        <ele>27</ele>
        <time>2019-08-26T15:12:19Z</time>
      </trkpt>
      <trkpt lat="49.0292" lon="2.09377">
        <ele>28</ele>
        <time>2019-08-26T15:13:02Z</time>
      </trkpt>
      <trkpt lat="49.02907" lon="2.0939">
        <ele>28</ele>
        <time>2019-08-26T15:14:27Z</time>
      </trkpt>
      <trkpt lat="49.02898" lon="2.09382">
        <ele>28</ele>
        <time>2019-08-26T15:15:27Z</time>
      </trkpt>
      <trkpt lat="49.02947" lon="2.09285">
        <ele>24</ele>
        <time>2019-08-26T15:17:22Z</time>
      </trkpt>
      <trkpt lat="49.03" lon="2.09186">
        <ele>27.4</ele>
        <time>2019-08-26T15:18:11Z</time>
      </trkpt>
      <trkpt lat="49.03003" lon="2.09191">
        <ele>28.2</ele>
        <time>2019-08-26T15:19:29Z</time>
      </trkpt>
      <trkpt lat="49.03011" lon="2.09205">
        <ele>27.8</ele>
        <time>2019-08-26T15:20:53Z</time>
      </trkpt>
      <trkpt lat="49.03013" lon="2.09217">
        <ele>27.4</ele>
        <time>2019-08-26T15:21:54Z</time>
      </trkpt>
      <trkpt lat="49.02992" lon="2.092">
        <ele>27</ele>
        <time>2019-08-26T15:22:11Z</time>
      </trkpt>
      <trkpt lat="49.02976" lon="2.09184">
        <ele>28</ele>
        <time>2019-08-26T15:22:30Z</time>
      </trkpt>
      <trkpt lat="49.02969" lon="2.0916">
        <ele>29</ele>
        <time>2019-08-26T15:22:48Z</time>
      </trkpt>
      <trkpt lat="49.02973" lon="2.09138">
        <ele>29.3</ele>
        <time>2019-08-26T15:27:43Z</time>
      </trkpt>
      <trkpt lat="49.02962" lon="2.09156">
        <ele>29.1</ele>
        <time>2019-08-26T15:29:37Z</time>
      </trkpt>
      <trkpt lat="49.02955" lon="2.09143">
        <ele>29</ele>
        <time>2019-08-26T15:31:24Z</time>
      </trkpt>
      <trkpt lat="49.02952" lon="2.09123">
        <ele>29</ele>
        <time>2019-08-26T15:32:22Z</time>
      </trkpt>
      <trkpt lat="49.02945" lon="2.09106">
        <ele>29</ele>
        <time>2019-08-26T15:33:27Z</time>
      </trkpt>
      <trkpt lat="49.02927" lon="2.09123">
        <ele>28.7</ele>
        <time>2019-08-26T15:33:52Z</time>
      </trkpt>
      <trkpt lat="49.02911" lon="2.09147">
        <ele>26.7</ele>
        <time>2019-08-26T15:34:41Z</time>
      </trkpt>
      <trkpt lat="49.02901" lon="2.0915">
        <ele>26.5</ele>
        <time>2019-08-26T15:35:10Z</time>
      </trkpt>
      <trkpt lat="49.02893" lon="2.0917">
        <ele>25.5</ele>
        <time>2019-08-26T15:35:37Z</time>
      </trkpt>
      <trkpt lat="49.02875" lon="2.09164">
        <ele>25.7</ele>
        <time>2019-08-26T15:37:22Z</time>
      </trkpt>
      <trkpt lat="49.02876" lon="2.09137">
        <ele>25.6</ele>
        <time>2019-08-26T15:38:24Z</time>
      </trkpt>
      <trkpt lat="49.02851" lon="2.09139">
        <ele>25</ele>
        <time>2019-08-26T15:40:50Z</time>
      </trkpt>
      <trkpt lat="49.02835" lon="2.09156">
        <ele>24.5</ele>
        <time>2019-08-26T15:41:34Z</time>
      </trkpt>
      <trkpt lat="49.02823" lon="2.09158">
        <ele>24</ele>
        <time>2019-08-26T15:42:13Z</time>
      </trkpt>
      <trkpt lat="49.02811" lon="2.09158">
        <ele>24</ele>
        <time>2019-08-26T15:46:33Z</time>
      </trkpt>
      <trkpt lat="49.02791" lon="2.09157">
        <ele>24</ele>
        <time>2019-08-26T15:47:03Z</time>
      </trkpt>
      <trkpt lat="49.02759" lon="2.09153">
        <ele>24</ele>
        <time>2019-08-26T15:48:42Z</time>
      </trkpt>
      <trkpt lat="49.02696" lon="2.0914">
        <ele>25</ele>
        <time>2019-08-26T15:52:22Z</time>
      </trkpt>
      <trkpt lat="49.02652" lon="2.09124">
        <ele>24</ele>
        <time>2019-08-26T15:57:59Z</time>
      </trkpt>
      <trkpt lat="49.02569" lon="2.09089">
        <ele>24</ele>
        <time>2019-08-26T16:03:53Z</time>
      </trkpt>
      <trkpt lat="49.02534" lon="2.09074">
        <ele>24</ele>
        <time>2019-08-26T16:04:22Z</time>
      </trkpt>
      <trkpt lat="49.0248" lon="2.09039">
        <ele>24</ele>
        <time>2019-08-26T16:04:33Z</time>
      </trkpt>
      <trkpt lat="49.02421" lon="2.09006">
        <ele>22</ele>
        <time>2019-08-26T16:05:30Z</time>
      </trkpt>
      <trkpt lat="49.02379" lon="2.08978">
        <ele>23</ele>
        <time>2019-08-26T16:06:07Z</time>
      </trkpt>
      <trkpt lat="49.02367" lon="2.0897">
        <ele>23</ele>
        <time>2019-08-26T16:08:04Z</time>
      </trkpt>
      <trkpt lat="49.02375" lon="2.08953">
        <ele>23</ele>
        <time>2019-08-26T16:10:29Z</time>
      </trkpt>
      <trkpt lat="49.0237" lon="2.08934">
        <ele>23</ele>
        <time>2019-08-26T16:12:05Z</time>
      </trkpt>
      <trkpt lat="49.02466" lon="2.0863">
        <ele>22</ele>
        <time>2019-08-26T16:13:05Z</time>
      </trkpt>
      <trkpt lat="49.02505" lon="2.08514">
        <ele>26</ele>
        <time>2019-08-26T16:13:42Z</time>
      </trkpt>
      <trkpt lat="49.02567" lon="2.08592">
        <ele>25</ele>
        <time>2019-08-26T16:14:38Z</time>
      </trkpt>
      <trkpt lat="49.02578" lon="2.08584">
        <ele>26</ele>
        <time>2019-08-26T16:19:08Z</time>
      </trkpt>
      <trkpt lat="49.0261" lon="2.08581">
        <ele>27</ele>
        <time>2019-08-26T16:22:28Z</time>
      </trkpt>
      <trkpt lat="49.02656" lon="2.08558">
        <ele>27</ele>
        <time>2019-08-26T16:23:19Z</time>
      </trkpt>
      <trkpt lat="49.02658" lon="2.0855">
        <ele>29</ele>
        <time>2019-08-26T16:24:11Z</time>
      </trkpt>
      <trkpt lat="49.02649" lon="2.08532">
        <ele>29</ele>
        <time>2019-08-26T16:25:04Z</time>
      </trkpt>
      <trkpt lat="49.02614" lon="2.08515">
        <ele>31</ele>
        <time>2019-08-26T16:25:47Z</time>
      </trkpt>
      <trkpt lat="49.02593" lon="2.08526">
        <ele>31</ele>
        <time>2019-08-26T16:26:10Z</time>
      </trkpt>
      <trkpt lat="49.02576" lon="2.08511">
        <ele>32</ele>
        <time>2019-08-26T16:27:55Z</time>
      </trkpt>
      <trkpt lat="49.02568" lon="2.08495">
        <ele>33</ele>
        <time>2019-08-26T16:31:40Z</time>
      </trkpt>
      <trkpt lat="49.02571" lon="2.0846">
        <ele>32.3</ele>
        <time>2019-08-26T16:34:53Z</time>
      </trkpt>
      <trkpt lat="49.02581" lon="2.08391">
        <ele>33</ele>
        <time>2019-08-26T16:46:37Z</time>
      </trkpt>
      <trkpt lat="49.02594" lon="2.08389">
        <ele>34</ele>
        <time>2019-08-26T16:48:44Z</time>
      </trkpt>
      <trkpt lat="49.02625" lon="2.08371">
        <ele>33</ele>
        <time>2019-08-26T16:57:19Z</time>
      </trkpt>
      <trkpt lat="49.02698" lon="2.08378">
        <ele>33.1</ele>
        <time>2019-08-26T16:59:14Z</time>
      </trkpt>
      <trkpt lat="49.02734" lon="2.08364">
        <ele>33</ele>
        <time>2019-08-26T17:00:24Z</time>
      </trkpt>
      <trkpt lat="49.02765" lon="2.08346">
        <ele>33</ele>
        <time>2019-08-26T17:01:51Z</time>
      </trkpt>
      <trkpt lat="49.0279" lon="2.08323">
        <ele>34</ele>
        <time>2019-08-26T17:03:35Z</time>
      </trkpt>
      <trkpt lat="49.02795" lon="2.08295">
        <ele>34</ele>
        <time>2019-08-26T17:06:40Z</time>
      </trkpt>
      <trkpt lat="49.02722" lon="2.08154">
        <ele>34.1</ele>
        <time>2019-08-26T17:18:32Z</time>
      </trkpt>
      <trkpt lat="49.02709" lon="2.08113">
        <ele>34</ele>
        <time>2019-08-26T17:21:35Z</time>
      </trkpt>
      <trkpt lat="49.02713" lon="2.0807">
        <ele>33</ele>
        <time>2019-08-26T17:25:16Z</time>
      </trkpt>
      <trkpt lat="49.02721" lon="2.08058">
        <ele>34</ele>
        <time>2019-08-26T17:27:51Z</time>
      </trkpt>
      <trkpt lat="49.02734" lon="2.0803">
        <ele>34</ele>
        <time>2019-08-26T17:29:18Z</time>
      </trkpt>
      <trkpt lat="49.02707" lon="2.08043">
        <ele>33.2</ele>
        <time>2019-08-26T17:30:04Z</time>
      </trkpt>
      <trkpt lat="49.02687" lon="2.08031">
        <ele>33</ele>
        <time>2019-08-26T17:38:43Z</time>
      </trkpt>
      <trkpt lat="49.02667" lon="2.08">
        <ele>32</ele>
        <time>2019-08-26T17:39:55Z</time>
      </trkpt>
      <trkpt lat="49.02726" lon="2.07765">
        <ele>29</ele>
        <time>2019-08-26T17:40:22Z</time>
      </trkpt>
      <trkpt lat="49.02785" lon="2.07581">
        <ele>32.4</ele>
        <time>2019-08-26T17:42:38Z</time>
      </trkpt>
      <trkpt lat="49.02775" lon="2.07577">
        <ele>32</ele>
        <time>2019-08-26T17:44:16Z</time>
      </trkpt>
      <trkpt lat="49.02823" lon="2.0741">
        <ele>33</ele>
        <time>2019-08-26T17:46:04Z</time>
      </trkpt>
      <trkpt lat="49.02856" lon="2.07285">
        <ele>32.7</ele>
        <time>2019-08-26T17:46:43Z</time>
      </trkpt>
      <trkpt lat="49.02786" lon="2.07206">
        <ele>31</ele>
        <time>2019-08-26T17:50:27Z</time>
      </trkpt>
      <trkpt lat="49.02756" lon="2.07265">
        <ele>32.2</ele>
        <time>2019-08-26T17:52:18Z</time>
      </trkpt>
      <trkpt lat="49.02731" lon="2.07294">
        <ele>32</ele>
        <time>2019-08-26T17:53:26Z</time>
      </trkpt>
      <trkpt lat="49.02715" lon="2.07317">
        <ele>31</ele>
        <time>2019-08-26T17:55:45Z</time>
      </trkpt>
      <trkpt lat="49.0271" lon="2.07327">
        <ele>31</ele>
        <time>2019-08-26T17:56:48Z</time>
      </trkpt>
      <trkpt lat="49.02673" lon="2.07358">
        <ele>30</ele>
        <time>2019-08-26T17:57:59Z</time>
      </trkpt>
      <trkpt lat="49.0265" lon="2.07382">
        <ele>29</ele>
        <time>2019-08-26T17:58:44Z</time>
      </trkpt>
      <trkpt lat="49.02633" lon="2.07416">
        <ele>29</ele>
        <time>2019-08-26T18:00:02Z</time>
      </trkpt>
      <trkpt lat="49.0261" lon="2.07499">
        <ele>32</ele>
        <time>2019-08-26T18:06:18Z</time>
      </trkpt>
      <trkpt lat="49.02572" lon="2.07654">
        <ele>33</ele>
        <time>2019-08-26T18:08:40Z</time>
      </trkpt>
      <trkpt lat="49.02591" lon="2.07645">
        <ele>32.5</ele>
        <time>2019-08-26T18:11:14Z</time>
      </trkpt>
      <trkpt lat="49.02636" lon="2.07674">
        <ele>31</ele>
        <time>2019-08-26T18:14:25Z</time>
      </trkpt>
      <trkpt lat="49.02617" lon="2.07737">
        <ele>29</ele>
        <time>2019-08-26T18:16:30Z</time>
      </trkpt>
      <trkpt lat="49.02601" lon="2.07771">
        <ele>29</ele>
        <time>2019-08-26T18:17:51Z</time>
      </trkpt>
      <trkpt lat="49.02607" lon="2.07834">
        <ele>29</ele>
        <time>2019-08-26T18:19:10Z</time>
      </trkpt>
      <trkpt lat="49.02634" lon="2.07853">
        <ele>28.8</ele>
        <time>2019-08-26T18:21:03Z</time>
      </trkpt>
      <trkpt lat="49.02509" lon="2.08048">
        <ele>29</ele>
        <time>2019-08-26T18:24:33Z</time>
      </trkpt>
      <trkpt lat="49.02431" lon="2.08172">
        <ele>29.7</ele>
        <time>2019-08-26T18:28:51Z</time>
      </trkpt>
      <trkpt lat="49.02448" lon="2.08229">
        <ele>30</ele>
        <time>2019-08-26T18:32:04Z</time>
      </trkpt>
      <trkpt lat="49.02474" lon="2.08271">
        <ele>30</ele>
        <time>2019-08-26T18:34:44Z</time>
      </trkpt>
      <trkpt lat="49.02483" lon="2.08329">
        <ele>30</ele>
        <time>2019-08-26T18:39:56Z</time>
      </trkpt>
      <trkpt lat="49.02508" lon="2.08377">
        <ele>31</ele>
        <time>2019-08-26T18:42:44Z</time>
      </trkpt>
      <trkpt lat="49.02519" lon="2.08423">
        <ele>31</ele>
        <time>2019-08-26T18:45:48Z</time>
      </trkpt>
      <trkpt lat="49.02502" lon="2.08421">
        <ele>31</ele>
        <time>2019-08-26T18:47:59Z</time>
      </trkpt>
      <trkpt lat="49.02482" lon="2.08396">
        <ele>29</ele>
        <time>2019-08-26T18:53:32Z</time>
      </trkpt>
      <trkpt lat="49.0247" lon="2.08362">
        <ele>29</ele>
      </trkpt>
      <trkpt lat="49.02452" lon="2.08328">
        <ele>29</ele>
      </trkpt>
      <trkpt lat="49.0241" lon="2.08253">
        <ele>30</ele>
      </trkpt>
      <trkpt lat="49.02371" lon="2.08201">
        <ele>28.1</ele>
      </trkpt>
      <trkpt lat="49.02364" lon="2.08175">
        <ele>28</ele>
      </trkpt>
      <trkpt lat="49.02365" lon="2.08123">
        <ele>28</ele>
      </trkpt>
      <trkpt lat="49.02374" lon="2.07997">
        <ele>28.3</ele>
      </trkpt>
      <trkpt lat="49.02377" lon="2.07903">
        <ele>28</ele>
      </trkpt>
      <trkpt lat="49.02405" lon="2.07789">
        <ele>27.3</ele>
      </trkpt>
      <trkpt lat="49.02392" lon="2.07732">
        <ele>27</ele>
      </trkpt>
      <trkpt lat="49.02387" lon="2.07662">
        <ele>26.7</ele>
      </trkpt>
      <trkpt lat="49.02417" lon="2.07533">
        <ele>28.1</ele>
      </trkpt>
      <trkpt lat="49.02456" lon="2.07504">
        <ele>29</ele>
      </trkpt>
      <trkpt lat="49.02487" lon="2.07472">
        <ele>27.9</ele>
      </trkpt>
      <trkpt lat="49.02496" lon="2.074">
        <ele>27</ele>
      </trkpt>
      <trkpt lat="49.02515" lon="2.07329">
        <ele>26.5</ele>
      </trkpt>
      <trkpt lat="49.02591" lon="2.07242">
        <ele>28</ele>
      </trkpt>
      <trkpt lat="49.02671" lon="2.07165">
        <ele>30</ele>
      </trkpt>
      <trkpt lat="49.02739" lon="2.07098">
        <ele>28.4</ele>
      </trkpt>
      <trkpt lat="49.02729" lon="2.07078">
        <ele>27</ele>
      </trkpt>
      <trkpt lat="49.02712" lon="2.07062">
        <ele>26.2</ele>
      </trkpt>
      <trkpt lat="49.02706" lon="2.07026">
        <ele>25</ele>
      </trkpt>
      <trkpt lat="49.02704" lon="2.06978">
        <ele>23</ele>
      </trkpt>
      <trkpt lat="49.02684" lon="2.06995">
        <ele>23</ele>
      </trkpt>
      <trkpt lat="49.02627" lon="2.06858">
        <ele>21.5</ele>
      </trkpt>
      <trkpt lat="49.02604" lon="2.06805">
        <ele>21.8</ele>
      </trkpt>
      <trkpt lat="49.0258" lon="2.068">
        <ele>22</ele>
      </trkpt>
      <trkpt lat="49.02557" lon="2.06817">
        <ele>21</ele>
      </trkpt>
      <trkpt lat="49.02509" lon="2.06873">
        <ele>22</ele>
      </trkpt>
      <trkpt lat="49.02468" lon="2.06923">
        <ele>22</ele>
      </trkpt>
      <trkpt lat="49.02442" lon="2.06954">
        <ele>22</ele>
      </trkpt>
      <trkpt lat="49.02419" lon="2.06989">
        <ele>21</ele>
      </trkpt>
      <trkpt lat="49.02368" lon="2.07079">
        <ele>21</ele>
      </trkpt>
      <trkpt lat="49.02323" lon="2.07153">
        <ele>20.9</ele>
      </trkpt>
      <trkpt lat="49.02274" lon="2.07234">
        <ele>21</ele>
      </trkpt>
      <trkpt lat="49.02246" lon="2.07284">
        <ele>20.4</ele>
      </trkpt>
      <trkpt lat="49.02217" lon="2.07258">
        <ele>20.4</ele>
      </trkpt>
      <trkpt lat="49.02178" lon="2.07229">
        <ele>20.9</ele>
      </trkpt>
      <trkpt lat="49.02121" lon="2.07181">
        <ele>21.5</ele>
      </trkpt>
      <trkpt lat="49.02186" lon="2.07019">
        <ele>22.1</ele>
      </trkpt>
      <trkpt lat="49.0222" lon="2.06942">
        <ele>21.8</ele>
      </trkpt>
      <trkpt lat="49.0228" lon="2.06854">
        <ele>20</ele>
      </trkpt>
      <trkpt lat="49.02345" lon="2.06785">
        <ele>21</ele>
      </trkpt>
      <trkpt lat="49.02461" lon="2.06673">
        <ele>21</ele>
      </trkpt>
      <trkpt lat="49.02607" lon="2.06553">
        <ele>21</ele>
      </trkpt>
      <trkpt lat="49.02716" lon="2.06494">
        <ele>23</ele>
      </trkpt>
      <trkpt lat="49.02714" lon="2.06464">
        <ele>21</ele>
      </trkpt>
      <trkpt lat="49.02724" lon="2.06437">
        <ele>20.4</ele>
      </trkpt>
      <trkpt lat="49.02746" lon="2.06416">
        <ele>18</ele>
      </trkpt>
      <trkpt lat="49.0278" lon="2.06415">
        <ele>19</ele>
      </trkpt>
      <trkpt lat="49.02833" lon="2.06355">
        <ele>19.5</ele>
      </trkpt>
      <trkpt lat="49.02856" lon="2.06334">
        <ele>21.2</ele>
      </trkpt>
      <trkpt lat="49.02824" lon="2.0627">
        <ele>20.2</ele>
      </trkpt>
      <trkpt lat="49.02866" lon="2.06214">
        <ele>22.1</ele>
      </trkpt>
      <trkpt lat="49.02907" lon="2.06141">
        <ele>22</ele>
      </trkpt>
      <trkpt lat="49.02968" lon="2.06064">
        <ele>22.4</ele>
      </trkpt>
      <trkpt lat="49.03052" lon="2.06033">
        <ele>22.2</ele>
      </trkpt>
      <trkpt lat="49.0308" lon="2.06099">
        <ele>23.1</ele>
      </trkpt>
      <trkpt lat="49.03138" lon="2.06142">
        <ele>24</ele>
      </trkpt>
      <trkpt lat="49.03171" lon="2.06087">
        <ele>24.2</ele>
      </trkpt>
      <trkpt lat="49.03198" lon="2.06034">
        <ele>24.5</ele>
      </trkpt>
      <trkpt lat="49.03142" lon="2.05809">
        <ele>26</ele>
      </trkpt>
      <trkpt lat="49.03106" lon="2.05809">
        <ele>25.7</ele>
      </trkpt>
      <trkpt lat="49.03128" lon="2.05852">
        <ele>25.3</ele>
      </trkpt>
      <trkpt lat="49.03109" lon="2.05878">
        <ele>25</ele>
      </trkpt>
      <trkpt lat="49.03008" lon="2.05905">
        <ele>21.3</ele>
      </trkpt>
      <trkpt lat="49.02989" lon="2.05909">
        <ele>21.2</ele>
      </trkpt>
      <trkpt lat="49.02944" lon="2.05924">
        <ele>22.2</ele>
      </trkpt>
      <trkpt lat="49.02889" lon="2.05947">
        <ele>24</ele>
      </trkpt>
      <trkpt lat="49.02818" lon="2.06034">
        <ele>22.1</ele>
      </trkpt>
      <trkpt lat="49.02753" lon="2.06205">
        <ele>20.9</ele>
      </trkpt>
      <trkpt lat="49.02686" lon="2.06279">
        <ele>21.3</ele>
      </trkpt>
      <trkpt lat="49.02654" lon="2.06322">
        <ele>21.6</ele>
      </trkpt>
      <trkpt lat="49.02641" lon="2.06356">
        <ele>21</ele>
      </trkpt>
      <trkpt lat="49.02548" lon="2.06433">
        <ele>23</ele>
      </trkpt>
      <trkpt lat="49.02447" lon="2.06519">
        <ele>21</ele>
      </trkpt>
      <trkpt lat="49.02324" lon="2.06631">
        <ele>22</ele>
      </trkpt>
      <trkpt lat="49.02246" lon="2.06709">
        <ele>23</ele>
      </trkpt>
      <trkpt lat="49.02197" lon="2.06765">
        <ele>25</ele>
      </trkpt>
      <trkpt lat="49.02153" lon="2.06825">
        <ele>25</ele>
      </trkpt>
      <trkpt lat="49.02106" lon="2.06932">
        <ele>27</ele>
      </trkpt>
      <trkpt lat="49.02032" lon="2.07144">
        <ele>22</ele>
      </trkpt>
      <trkpt lat="49.01948" lon="2.0741">
        <ele>23</ele>
      </trkpt>
      <trkpt lat="49.0189" lon="2.07612">
        <ele>26</ele>
      </trkpt>
      <trkpt lat="49.01849" lon="2.07783">
        <ele>30</ele>
      </trkpt>
      <trkpt lat="49.01835" lon="2.07855">
        <ele>28</ele>
      </trkpt>
      <trkpt lat="49.01829" lon="2.07953">
        <ele>32.2</ele>
      </trkpt>
      <trkpt lat="49.01837" lon="2.08027">
        <ele>26.1</ele>
      </trkpt>
      <trkpt lat="49.01846" lon="2.08137">
        <ele>28</ele>
      </trkpt>
      <trkpt lat="49.01886" lon="2.0832">
        <ele>25</ele>
      </trkpt>
      <trkpt lat="49.01926" lon="2.08521">
        <ele>27</ele>
      </trkpt>
      <trkpt lat="49.01955" lon="2.08664">
        <ele>28</ele>
      </trkpt>
      <trkpt lat="49.02007" lon="2.08794">
        <ele>24.1</ele>
      </trkpt>
      <trkpt lat="49.02078" lon="2.08903">
        <ele>25.1</ele>
      </trkpt>
      <trkpt lat="49.02048" lon="2.08959">
        <ele>31</ele>
      </trkpt>
      <trkpt lat="49.02086" lon="2.09035">
        <ele>26.4</ele>
      </trkpt>
      <trkpt lat="49.02141" lon="2.09105">
        <ele>30</ele>
      </trkpt>
      <trkpt lat="49.02185" lon="2.09177">
        <ele>28.4</ele>
      </trkpt>
      <trkpt lat="49.02177" lon="2.09195">
        <ele>29.1</ele>
      </trkpt>
      <trkpt lat="49.02203" lon="2.0924">
        <ele>30.1</ele>
      </trkpt>
      <trkpt lat="49.02171" lon="2.09226">
        <ele>31.5</ele>
      </trkpt>
      <trkpt lat="49.02122" lon="2.09172">
        <ele>38.6</ele>
      </trkpt>
      <trkpt lat="49.0207" lon="2.09141">
        <ele>43</ele>
      </trkpt>
      <trkpt lat="49.02044" lon="2.09127">
        <ele>43.5</ele>
      </trkpt>
      <trkpt lat="49.02007" lon="2.09127">
        <ele>45.3</ele>
      </trkpt>
      <trkpt lat="49.01986" lon="2.09069">
        <ele>48.5</ele>
      </trkpt>
      <trkpt lat="49.01967" lon="2.09083">
        <ele>49.2</ele>
      </trkpt>
    </trkseg>
  </trk>
</gpx>